Time;durP1;ratioP1;P1;durP2;ratioP2;P2;SDS_P1;SDS_P2;PMS_P1;PMS_P2;Temp;Humidity;BMP_temperature;BMP_pressure;BME280_temperature;BME280_humidity;BME280_pressure;Samples;Min_cycle;Max_cycle;Signal;HPM_P1;HPM_P2
2022/05/26 00:02:23;;;;;;;5.55;1.70;;;20.30;59.60;;;;;;4497798;31;20193;-63
2022/05/26 00:04:49;;;;;;;4.78;1.60;;;20.30;59.60;;;;;;4513186;31;20132;-63
2022/05/26 00:07:27;;;;;;;4.65;1.40;;;20.30;59.60;;;;;;4499073;31;20159;-63
2022/05/26 00:09:53;;;;;;;4.07;1.42;;;20.30;59.60;;;;;;4512787;31;20140;-63
2022/05/26 00:12:19;;;;;;;3.63;1.17;;;20.20;59.60;;;;;;4512566;31;20112;-62
2022/05/26 00:14:45;;;;;;;4.78;1.58;;;20.30;59.70;;;;;;4512437;31;20590;-63
2022/05/26 00:17:11;;;;;;;4.60;1.35;;;20.30;59.60;;;;;;4512917;31;20143;-63
2022/05/26 00:19:37;;;;;;;4.47;1.40;;;20.30;59.60;;;;;;4511806;31;20551;-63
2022/05/26 00:22:03;;;;;;;4.55;1.15;;;20.30;59.60;;;;;;4513391;31;20262;-63
2022/05/26 00:24:29;;;;;;;4.47;1.55;;;20.20;59.60;;;;;;4511631;31;20144;-63
2022/05/26 00:26:55;;;;;;;4.00;1.45;;;20.20;59.60;;;;;;4512807;31;20193;-63
2022/05/26 00:29:23;;;;;;;3.92;1.35;;;20.20;59.60;;;;;;4512217;31;20588;-62
2022/05/26 00:31:49;;;;;;;3.85;1.40;;;20.20;59.60;;;;;;4512361;31;20151;-63
2022/05/26 00:34:15;;;;;;;4.07;1.60;;;20.20;59.60;;;;;;4512439;31;20124;-63
2022/05/26 00:36:42;;;;;;;5.28;1.65;;;20.20;59.60;;;;;;4511915;31;20250;-63
2022/05/26 00:39:18;;;;;;;2.45;1.08;;;20.20;59.60;;;;;;4512736;31;20290;-62
2022/05/26 00:41:47;;;;;;;5.15;1.30;;;20.20;59.60;;;;;;4511720;31;20143;-63
2022/05/26 00:44:16;;;;;;;4.68;1.35;;;20.20;59.60;;;;;;4514855;31;20134;-63
2022/05/26 00:46:54;;;;;;;3.67;1.60;;;20.20;59.60;;;;;;4528071;31;20124;-63
2022/05/26 00:49:42;;;;;;;5.10;1.30;;;20.20;59.70;;;;;;4527926;31;20135;-63
2022/05/26 00:52:20;;;;;;;4.75;1.40;;;20.20;59.60;;;;;;4516739;31;20169;-63
2022/05/26 00:54:48;;;;;;;3.60;1.20;;;20.20;59.70;;;;;;4527662;31;20146;-63
2022/05/26 00:57:24;;;;;;;4.30;1.30;;;20.20;59.70;;;;;;4528189;31;20187;-63
2022/05/26 00:59:59;;;;;;;3.85;1.48;;;20.20;59.70;;;;;;4528211;31;20281;-63
2022/05/26 01:02:33;;;;;;;4.85;1.27;;;20.20;59.60;;;;;;4527713;31;20274;-63
2022/05/26 01:05:06;;;;;;;4.72;1.27;;;20.20;59.60;;;;;;4528874;31;20151;-63
2022/05/26 01:07:36;;;;;;;4.50;1.55;;;20.20;59.60;;;;;;4527477;31;20154;-63
2022/05/26 01:10:04;;;;;;;5.95;1.65;;;20.20;59.70;;;;;;4528430;31;20244;-63
2022/05/26 01:12:30;;;;;;;4.50;1.40;;;20.20;59.70;;;;;;4513513;31;20155;-63
2022/05/26 01:15:02;;;;;;;4.20;1.13;;;20.20;59.70;;;;;;4527786;31;20145;-63
2022/05/26 01:18:05;;;;;;;3.97;1.30;;;20.20;59.80;;;;;;4528272;31;20150;-63
2022/05/26 01:20:58;;;;;;;5.40;1.58;;;20.20;59.70;;;;;;4527276;31;20128;-63
2022/05/26 01:23:29;;;;;;;4.28;1.70;;;20.10;59.70;;;;;;4531159;31;20131;-63
2022/05/26 01:26:29;;;;;;;2.78;1.10;;;20.20;59.70;;;;;;4531221;31;20124;-63
2022/05/26 01:29:18;;;;;;;3.90;1.60;;;20.10;59.70;;;;;;4530344;31;20120;-63
2022/05/26 01:32:10;;;;;;;4.55;1.40;;;20.10;59.70;;;;;;4516913;31;20247;-63
2022/05/26 01:34:59;;;;;;;4.47;1.27;;;20.10;59.70;;;;;;4531316;31;20164;-63
2022/05/26 01:37:55;;;;;;;3.70;1.27;;;20.10;59.70;;;;;;4530317;31;20120;-63
2022/05/26 01:40:36;;;;;;;4.55;1.30;;;20.10;59.80;;;;;;4530650;31;20557;-63
2022/05/26 01:43:06;;;;;;;3.88;1.25;;;20.10;59.80;;;;;;4531069;31;20541;-63
2022/05/26 01:45:45;;;;;;;5.38;1.70;;;20.10;59.80;;;;;;4530207;31;20199;-63
2022/05/26 01:48:23;;;;;;;3.63;1.25;;;20.10;59.70;;;;;;4531397;31;20243;-63
2022/05/26 01:51:12;;;;;;;5.85;1.40;;;20.10;59.80;;;;;;4507290;31;20143;-63
2022/05/26 01:53:41;;;;;;;4.20;1.30;;;20.10;59.80;;;;;;4514128;31;20835;-63
2022/05/26 01:56:28;;;;;;;4.95;1.63;;;20.10;59.80;;;;;;4514858;31;20108;-63
2022/05/26 01:59:15;;;;;;;3.88;1.58;;;20.10;59.80;;;;;;4499279;31;20197;-63
2022/05/26 02:01:45;;;;;;;4.60;1.67;;;20.10;59.80;;;;;;4499778;31;20142;-63
2022/05/26 02:04:21;;;;;;;3.97;1.33;;;20.10;59.80;;;;;;4514306;31;20144;-63
2022/05/26 02:06:53;;;;;;;4.55;1.20;;;20.10;59.80;;;;;;4513701;31;20635;-63
2022/05/26 02:09:41;;;;;;;5.65;1.52;;;20.00;59.70;;;;;;4527697;31;20155;-63
2022/05/26 02:12:24;;;;;;;4.72;1.75;;;20.10;59.80;;;;;;4529602;31;20968;-63
2022/05/26 02:14:54;;;;;;;4.22;1.33;;;20.10;59.80;;;;;;4513961;31;20131;-63
2022/05/26 02:17:28;;;;;;;2.38;1.00;;;20.00;59.70;;;;;;4514142;31;20139;-63
2022/05/26 02:20:09;;;;;;;4.22;1.48;;;20.00;59.70;;;;;;4497977;31;20168;-63
2022/05/26 02:23:07;;;;;;;4.93;1.20;;;20.00;59.70;;;;;;4514530;31;20120;-63
2022/05/26 02:25:34;;;;;;;4.28;1.50;;;20.00;59.70;;;;;;4514187;31;20241;-63
2022/05/26 02:28:01;;;;;;;4.25;1.50;;;20.00;59.80;;;;;;4513888;31;20187;-63
2022/05/26 02:30:31;;;;;;;3.17;1.10;;;20.00;59.80;;;;;;4514712;31;20148;-63
2022/05/26 02:32:58;;;;;;;4.93;1.35;;;20.00;59.80;;;;;;4498844;31;20160;-62
2022/05/26 02:35:33;;;;;;;3.65;1.05;;;20.00;59.80;;;;;;4518741;31;20173;-63
2022/05/26 02:38:02;;;;;;;4.07;1.40;;;20.00;59.80;;;;;;4526413;31;20128;-63
2022/05/26 02:40:29;;;;;;;4.30;1.35;;;20.00;59.80;;;;;;4528432;31;20910;-63
2022/05/26 02:43:00;;;;;;;2.97;1.20;;;20.00;59.80;;;;;;4519699;31;20234;-63
2022/05/26 02:45:46;;;;;;;3.20;1.20;;;20.00;59.80;;;;;;4513090;31;20124;-63
2022/05/26 02:48:34;;;;;;;2.60;0.90;;;20.00;59.70;;;;;;4514129;31;20116;-63
2022/05/26 02:51:37;;;;;;;4.10;1.30;;;20.00;59.70;;;;;;4512980;31;20128;-63
2022/05/26 02:54:40;;;;;;;2.80;0.95;;;20.00;59.80;;;;;;4512684;31;20302;-63
2022/05/26 02:57:33;;;;;;;3.03;1.05;;;20.00;59.80;;;;;;4513765;31;20139;-63
2022/05/26 03:00:10;;;;;;;5.40;1.60;;;20.00;59.80;;;;;;4513299;31;20112;-62
2022/05/26 03:02:57;;;;;;;2.88;1.30;;;20.00;59.90;;;;;;4512720;31;20818;-63
2022/05/26 03:05:52;;;;;;;3.17;1.10;;;20.00;59.80;;;;;;4513928;31;20165;-63
2022/05/26 03:08:22;;;;;;;3.20;1.20;;;20.00;59.80;;;;;;4512887;31;20124;-63
2022/05/26 03:10:51;;;;;;;4.18;1.13;;;20.00;59.80;;;;;;4512662;31;20265;-63
2022/05/26 03:13:18;;;;;;;2.53;1.10;;;20.00;59.90;;;;;;4513006;31;20556;-62
2022/05/26 03:15:44;;;;;;;4.88;1.40;;;19.90;59.80;;;;;;4513732;31;20470;-62
2022/05/26 03:18:10;;;;;;;3.38;1.20;;;19.90;59.80;;;;;;4513098;31;20136;-63
2022/05/26 03:20:37;;;;;;;3.05;1.15;;;19.90;59.80;;;;;;4511469;31;20186;-62
2022/05/26 03:23:03;;;;;;;2.53;1.20;;;19.90;59.80;;;;;;4512518;31;20189;-63
2022/05/26 03:25:29;;;;;;;3.30;1.20;;;19.90;59.80;;;;;;4512052;31;20191;-63
2022/05/26 03:27:54;;;;;;;2.75;1.15;;;19.90;59.80;;;;;;4511900;31;20282;-62
2022/05/26 03:30:20;;;;;;;2.72;1.40;;;19.90;59.90;;;;;;4514656;31;20136;-62
2022/05/26 03:32:46;;;;;;;4.82;1.38;;;19.90;59.80;;;;;;4511374;31;20512;-63
2022/05/26 03:40:57;;;;;;;2.67;1.00;;;19.90;59.80;;;;;;4511492;31;20128;-63
2022/05/26 03:43:37;;;;;;;3.65;1.00;;;19.90;59.80;;;;;;4511988;31;20194;-63
2022/05/26 03:46:03;;;;;;;3.80;1.30;;;19.90;59.80;;;;;;4497596;31;20144;-63
2022/05/26 03:48:29;;;;;;;2.63;1.10;;;19.90;59.80;;;;;;4512198;31;20216;-63
2022/05/26 03:50:55;;;;;;;4.32;1.45;;;19.90;59.80;;;;;;4511491;31;20168;-62
2022/05/26 03:53:21;;;;;;;2.55;1.00;;;19.90;59.80;;;;;;4512138;31;20170;-63
2022/05/26 03:55:47;;;;;;;3.10;1.35;;;19.90;59.80;;;;;;4512591;31;20274;-63
2022/05/26 03:58:13;;;;;;;3.60;1.15;;;19.90;59.90;;;;;;4511791;31;20112;-63
2022/05/26 04:00:39;;;;;;;3.13;1.05;;;19.90;59.90;;;;;;4512859;31;20150;-63
2022/05/26 04:03:05;;;;;;;2.80;0.95;;;19.90;59.90;;;;;;4511614;31;20194;-62
2022/05/26 04:05:31;;;;;;;2.75;1.00;;;19.90;59.80;;;;;;4512995;31;20262;-63
2022/05/26 04:07:57;;;;;;;3.85;1.23;;;19.90;59.80;;;;;;4512493;31;20317;-63
2022/05/26 04:10:23;;;;;;;3.00;1.05;;;19.90;59.80;;;;;;4512502;31;20116;-63
2022/05/26 04:12:49;;;;;;;2.28;0.82;;;19.90;59.80;;;;;;4512781;31;20458;-63
2022/05/26 04:15:17;;;;;;;2.63;1.05;;;19.90;59.80;;;;;;4512230;31;20132;-63
2022/05/26 04:17:43;;;;;;;2.63;1.00;;;19.90;59.90;;;;;;4513172;31;20116;-63
2022/05/26 04:20:15;;;;;;;2.70;1.00;;;19.90;59.80;;;;;;4511733;31;20140;-62
2022/05/26 04:22:42;;;;;;;3.33;0.82;;;19.90;59.80;;;;;;4513068;31;20179;-63
2022/05/26 04:25:08;;;;;;;3.22;1.02;;;19.90;59.90;;;;;;4498042;31;20262;-63
2022/05/26 04:27:35;;;;;;;2.67;1.05;;;19.90;59.80;;;;;;4512372;31;20146;-63
2022/05/26 04:30:03;;;;;;;2.03;0.70;;;19.90;59.90;;;;;;4512733;31;20151;-63
2022/05/26 04:32:30;;;;;;;2.88;0.90;;;19.80;59.90;;;;;;4511984;31;20155;-63
2022/05/26 04:34:57;;;;;;;2.10;0.90;;;19.90;59.90;;;;;;4498857;31;20128;-63
2022/05/26 04:37:25;;;;;;;2.60;0.88;;;19.90;59.90;;;;;;4511719;31;20266;-63
2022/05/26 04:39:51;;;;;;;2.55;1.10;;;19.80;59.80;;;;;;4512599;31;20578;-63
2022/05/26 04:42:18;;;;;;;3.28;0.93;;;19.90;59.90;;;;;;4512344;31;20136;-62
2022/05/26 04:44:45;;;;;;;3.38;0.85;;;19.90;59.90;;;;;;4512044;31;20132;-63
2022/05/26 04:47:12;;;;;;;3.70;0.98;;;19.80;59.90;;;;;;4512713;31;20228;-63
2022/05/26 04:49:39;;;;;;;2.65;0.85;;;19.90;59.90;;;;;;4511731;31;20282;-63
2022/05/26 04:52:07;;;;;;;2.47;0.77;;;19.80;59.90;;;;;;4513075;31;20194;-63
2022/05/26 04:54:33;;;;;;;2.47;0.80;;;19.90;59.90;;;;;;4511704;31;20136;-63
2022/05/26 04:56:59;;;;;;;2.10;0.88;;;19.80;59.90;;;;;;4515835;31;20262;-63
2022/05/26 04:59:26;;;;;;;2.75;0.95;;;19.90;59.90;;;;;;4515241;31;20135;-62
2022/05/26 05:01:52;;;;;;;2.70;1.13;;;19.90;59.90;;;;;;4515462;31;20265;-63
2022/05/26 05:04:18;;;;;;;3.15;0.88;;;19.80;59.80;;;;;;4515564;31;20120;-63
2022/05/26 05:06:44;;;;;;;4.13;1.10;;;19.90;59.90;;;;;;4514964;31;20465;-63
2022/05/26 05:09:10;;;;;;;2.25;0.70;;;19.90;59.80;;;;;;4501914;31;20288;-63
2022/05/26 05:11:36;;;;;;;2.38;0.88;;;19.90;59.80;;;;;;4500430;31;20120;-63
2022/05/26 05:14:04;;;;;;;3.08;0.90;;;19.90;59.80;;;;;;4515702;31;20134;-63
2022/05/26 05:16:34;;;;;;;2.40;0.82;;;19.90;59.80;;;;;;4515186;31;20695;-63
2022/05/26 05:19:00;;;;;;;2.50;1.02;;;19.90;59.80;;;;;;4500996;31;20318;-63
2022/05/26 05:21:38;;;;;;;2.00;0.90;;;19.90;59.80;;;;;;4515329;31;20245;-63
2022/05/26 05:24:44;;;;;;;2.35;0.77;;;19.90;60.70;;;;;;4514687;31;20140;-63
2022/05/26 05:27:35;;;;;;;4.05;1.25;;;19.90;60.60;;;;;;4458078;31;20125;-63
2022/05/26 05:30:25;;;;;;;2.30;0.60;;;19.90;59.70;;;;;;4515473;31;20132;-63
2022/05/26 05:33:04;;;;;;;2.05;0.80;;;19.90;59.70;;;;;;4513922;31;20473;-63
2022/05/26 05:35:40;;;;;;;3.65;0.90;;;19.90;59.70;;;;;;4515454;31;20152;-63
2022/05/26 05:38:06;;;;;;;2.58;0.80;;;19.90;59.70;;;;;;4515156;31;20151;-62
2022/05/26 05:40:32;;;;;;;2.28;0.80;;;19.90;59.70;;;;;;4514442;31;20189;-63
2022/05/26 05:42:58;;;;;;;1.80;0.80;;;19.90;59.70;;;;;;4515478;31;20140;-62
2022/05/26 05:45:23;;;;;;;2.50;0.90;;;19.90;59.60;;;;;;4514278;31;20116;-62
2022/05/26 05:47:49;;;;;;;2.13;0.82;;;19.90;59.60;;;;;;4515454;31;20297;-62
2022/05/26 05:50:15;;;;;;;2.10;1.00;;;20.00;59.60;;;;;;4513853;31;20137;-62
2022/05/26 05:52:41;;;;;;;3.30;1.10;;;20.00;59.60;;;;;;4515128;31;20234;-63
2022/05/26 05:55:07;;;;;;;3.05;0.98;;;20.00;59.50;;;;;;4514434;31;20163;-62
2022/05/26 05:57:33;;;;;;;1.70;0.82;;;20.00;59.50;;;;;;4514526;31;20136;-63
2022/05/26 05:59:59;;;;;;;1.83;0.57;;;20.00;59.50;;;;;;4514758;31;20155;-63
2022/05/26 06:02:25;;;;;;;2.20;0.90;;;20.00;59.50;;;;;;4514212;31;20121;-62
2022/05/26 06:04:51;;;;;;;2.67;0.90;;;20.00;59.50;;;;;;4515192;31;20132;-62
2022/05/26 06:07:20;;;;;;;2.15;1.10;;;20.00;59.40;;;;;;4513443;31;20120;-62
2022/05/26 06:09:47;;;;;;;1.73;0.65;;;20.00;59.40;;;;;;4514738;31;20156;-62
2022/05/26 06:12:13;;;;;;;3.35;1.17;;;20.10;59.50;;;;;;4514287;31;20225;-62
2022/05/26 06:14:42;;;;;;;2.35;0.95;;;20.10;59.50;;;;;;4500017;31;20501;-63
2022/05/26 06:17:10;;;;;;;1.85;0.68;;;20.10;59.40;;;;;;4514586;31;20136;-63
2022/05/26 06:19:36;;;;;;;2.03;0.68;;;20.10;59.40;;;;;;4513806;31;20136;-62
2022/05/26 06:22:10;;;;;;;1.92;0.93;;;20.10;59.40;;;;;;4514835;31;20151;-62
2022/05/26 06:24:38;;;;;;;2.63;0.80;;;20.10;59.40;;;;;;4499618;31;20290;-62
2022/05/26 06:29:49;;;;;;;2.10;0.70;;;20.20;59.50;;;;;;4514556;31;20198;-62
2022/05/26 06:29:54;;;;;;;0.95;0.60;;;20.10;59.40;;;;;;4514083;31;20174;-63
2022/05/26 06:37:52;;;;;;;1.77;0.70;;;20.10;59.50;;;;;;4513830;31;20302;-62
2022/05/26 06:40:18;;;;;;;1.83;0.60;;;20.10;59.50;;;;;;4513753;31;20186;-63
2022/05/26 06:42:46;;;;;;;1.08;0.60;;;20.10;59.50;;;;;;4514118;31;20136;-63
2022/05/26 06:45:14;;;;;;;1.35;0.60;;;20.10;59.50;;;;;;4499336;31;20146;-63
2022/05/26 06:47:40;;;;;;;3.72;0.73;;;20.10;59.50;;;;;;4500285;31;20136;-62
2022/05/26 06:50:06;;;;;;;2.28;0.88;;;20.10;59.50;;;;;;4513031;31;20116;-62
2022/05/26 06:52:32;;;;;;;2.25;0.65;;;20.20;59.70;;;;;;4514489;31;20126;-63
2022/05/26 06:54:59;;;;;;;5.25;0.98;;;20.20;59.70;;;;;;4513583;31;20607;-62
2022/05/26 06:57:25;;;;;;;5.47;1.15;;;20.20;59.70;;;;;;4513783;31;20136;-62
2022/05/26 06:59:51;;;;;;;3.97;0.95;;;20.20;59.80;;;;;;4513649;31;20136;-62
2022/05/26 07:02:17;;;;;;;2.22;0.88;;;20.30;59.80;;;;;;4513535;31;20135;-62
2022/05/26 07:04:43;;;;;;;2.33;0.93;;;20.30;60.00;;;;;;4514153;31;20132;-62
2022/05/26 07:07:13;;;;;;;5.75;0.77;;;20.30;60.10;;;;;;4512810;31;20209;-62
2022/05/26 07:09:39;;;;;;;2.05;0.73;;;20.30;60.10;;;;;;4514218;31;20142;-62
2022/05/26 07:12:06;;;;;;;5.03;1.00;;;20.30;60.10;;;;;;4513281;31;20661;-62
2022/05/26 07:14:31;;;;;;;7.85;1.05;;;20.30;60.10;;;;;;4513548;31;20128;-62
2022/05/26 07:16:58;;;;;;;3.83;0.80;;;20.40;60.10;;;;;;4513559;31;20148;-62
2022/05/26 07:19:24;;;;;;;4.53;0.80;;;20.30;60.10;;;;;;4512156;31;20143;-62
2022/05/26 07:21:50;;;;;;;5.47;0.95;;;20.40;60.20;;;;;;4513723;31;20121;-62
2022/05/26 07:24:21;;;;;;;3.05;0.93;;;20.40;60.10;;;;;;4512652;31;20128;-62
2022/05/26 07:26:48;;;;;;;5.45;1.10;;;20.50;60.00;;;;;;4513696;31;20208;-62
2022/05/26 07:29:14;;;;;;;2.70;0.82;;;20.50;60.00;;;;;;4513034;31;20143;-62
2022/05/26 07:31:41;;;;;;;3.08;0.85;;;20.50;60.00;;;;;;4513002;31;20173;-62
2022/05/26 07:34:07;;;;;;;4.57;1.10;;;20.50;60.00;;;;;;4513248;31;20128;-63
2022/05/26 07:42:09;;;;;;;2.88;0.80;;;20.60;59.90;;;;;;4519059;31;20136;-63
2022/05/26 07:44:40;;;;;;;4.80;1.25;;;20.60;59.90;;;;;;4528492;31;20181;-63
2022/05/26 07:47:07;;;;;;;3.60;0.98;;;20.60;59.80;;;;;;4528693;31;20322;-63
2022/05/26 07:49:38;;;;;;;3.28;1.08;;;20.60;59.80;;;;;;4527742;31;20144;-63
2022/05/26 07:52:04;;;;;;;3.92;0.73;;;20.60;59.70;;;;;;4529097;31;20120;-63
2022/05/26 07:54:31;;;;;;;5.47;1.25;;;20.70;59.70;;;;;;4527627;31;20128;-63
2022/05/26 07:56:59;;;;;;;4.90;1.00;;;20.70;59.70;;;;;;4528662;31;20220;-63
2022/05/26 07:59:25;;;;;;;3.60;0.70;;;20.60;59.60;;;;;;4528127;31;20145;-63
2022/05/26 08:01:51;;;;;;;4.57;0.70;;;20.70;59.60;;;;;;4528065;31;20135;-63
2022/05/26 08:04:18;;;;;;;2.88;0.90;;;20.70;59.70;;;;;;4528561;31;20172;-63
2022/05/26 08:06:46;;;;;;;5.13;0.95;;;20.60;59.60;;;;;;4527475;31;20132;-63
2022/05/26 08:09:14;;;;;;;5.72;0.88;;;20.70;59.60;;;;;;4528882;31;20108;-63
2022/05/26 08:11:40;;;;;;;3.83;1.00;;;20.60;59.40;;;;;;4519718;31;20198;-63
2022/05/26 08:14:06;;;;;;;4.05;1.27;;;20.60;59.50;;;;;;4515079;31;20135;-64
2022/05/26 08:16:32;;;;;;;4.03;1.17;;;20.60;59.40;;;;;;4515776;31;20147;-63
2022/05/26 08:18:59;;;;;;;4.20;0.70;;;20.60;59.30;;;;;;4524843;31;20139;-63
2022/05/26 08:21:25;;;;;;;4.10;0.90;;;20.60;59.30;;;;;;4527690;31;20642;-63
2022/05/26 08:23:53;;;;;;;5.65;0.95;;;20.60;59.30;;;;;;4526865;31;20124;-63
2022/05/26 08:26:19;;;;;;;4.32;0.98;;;20.60;59.30;;;;;;4528544;31;20131;-62
2022/05/26 08:28:46;;;;;;;5.43;0.85;;;20.60;59.20;;;;;;4527565;31;20136;-63
2022/05/26 08:31:15;;;;;;;4.32;0.90;;;20.60;59.30;;;;;;4528564;31;20151;-63
2022/05/26 08:33:42;;;;;;;3.47;0.80;;;20.60;59.20;;;;;;4528143;31;20228;-63
2022/05/26 08:36:17;;;;;;;4.28;0.85;;;20.60;59.20;;;;;;4528298;31;20272;-63
2022/05/26 08:38:45;;;;;;;5.97;0.85;;;20.70;59.10;;;;;;4528676;31;20147;-62
2022/05/26 08:41:17;;;;;;;5.03;0.90;;;20.70;59.10;;;;;;4513127;31;20144;-61
2022/05/26 08:43:48;;;;;;;2.78;0.75;;;20.70;59.10;;;;;;4513356;31;20116;-62
2022/05/26 08:46:17;;;;;;;4.30;0.95;;;20.70;59.10;;;;;;4511635;31;20136;-62
2022/05/26 08:49:19;;;;;;;4.90;1.10;;;20.70;59.10;;;;;;4513537;31;21063;-63
2022/05/26 08:51:55;;;;;;;6.28;1.00;;;20.70;59.10;;;;;;4514665;31;20150;-63
2022/05/26 08:54:47;;;;;;;6.97;1.00;;;20.70;59.20;;;;;;4527579;31;20141;-63
2022/05/26 08:57:17;;;;;;;3.28;0.88;;;20.80;59.30;;;;;;4527987;31;20142;-62
2022/05/26 08:59:45;;;;;;;4.95;0.90;;;20.80;59.30;;;;;;4513348;31;20143;-63
2022/05/26 09:02:34;;;;;;;6.63;1.10;;;20.80;59.30;;;;;;4528999;31;20139;-63
2022/05/26 09:05:15;;;;;;;5.65;1.10;;;20.90;59.20;;;;;;4528313;31;20120;-63
2022/05/26 09:13:38;;;;;;;4.68;1.00;;;21.00;58.80;;;;;;4528393;31;20191;-63
2022/05/26 09:16:08;;;;;;;4.32;0.93;;;21.10;58.70;;;;;;4527361;31;20127;-62
2022/05/26 09:18:35;;;;;;;6.10;1.08;;;21.10;58.50;;;;;;4527589;31;20174;-62
2022/05/26 09:21:24;;;;;;;4.20;0.88;;;21.10;58.30;;;;;;4523646;31;20260;-63
2022/05/26 09:23:52;;;;;;;9.57;1.33;;;21.10;58.20;;;;;;4521236;31;20116;-63
2022/05/26 09:26:22;;;;;;;7.45;1.10;;;21.20;58.30;;;;;;4513396;31;20128;-63
2022/05/26 09:28:53;;;;;;;4.18;1.00;;;21.20;58.30;;;;;;4521727;31;20146;-64
2022/05/26 09:31:31;;;;;;;3.22;0.70;;;21.20;58.10;;;;;;4486726;31;21831;-65
2022/05/26 09:34:07;;;;;;;4.15;0.88;;;21.30;57.80;;;;;;4479803;32;20163;-64
2022/05/26 09:36:37;;;;;;;5.35;0.85;;;21.30;57.80;;;;;;4479243;32;20274;-64
2022/05/26 09:39:05;;;;;;;7.22;0.75;;;21.30;57.60;;;;;;4480262;32;20157;-61
2022/05/26 09:41:47;;;;;;;2.17;0.75;;;21.30;57.50;;;;;;4478896;32;20125;-63
2022/05/26 09:44:30;;;;;;;6.53;1.17;;;21.30;57.40;;;;;;4477425;31;20160;-61
2022/05/26 09:46:58;;;;;;;3.90;0.98;;;21.40;57.40;;;;;;4482115;32;20148;-63
2022/05/26 09:49:40;;;;;;;4.38;1.08;;;21.40;57.30;;;;;;4482125;32;20337;-63
2022/05/26 09:52:15;;;;;;;5.28;0.85;;;21.40;57.10;;;;;;4495433;31;20125;-63
2022/05/26 09:54:41;;;;;;;4.80;0.93;;;21.40;57.00;;;;;;4481293;31;20133;-61
2022/05/26 09:57:28;;;;;;;3.67;0.65;;;21.40;57.00;;;;;;4470469;32;20129;-62
2022/05/26 09:59:54;;;;;;;5.38;0.90;;;21.40;57.00;;;;;;4467617;32;20271;-61
2022/05/26 10:02:36;;;;;;;4.70;0.90;;;21.40;57.00;;;;;;4466852;32;20295;-61
2022/05/26 10:05:13;;;;;;;4.13;0.70;;;21.40;56.80;;;;;;4467930;32;20125;-62
2022/05/26 10:07:59;;;;;;;4.43;0.95;;;21.40;56.80;;;;;;4467150;32;20148;-61
2022/05/26 10:10:59;;;;;;;7.40;1.05;;;21.40;56.70;;;;;;4461278;32;20148;-61
2022/05/26 10:13:48;;;;;;;5.93;1.10;;;21.40;56.70;;;;;;4461158;32;20152;-62
2022/05/26 10:16:37;;;;;;;4.32;0.85;;;21.40;56.70;;;;;;4467016;32;20144;-62
2022/05/26 10:19:15;;;;;;;4.88;1.02;;;21.40;56.70;;;;;;4466618;32;20137;-62
2022/05/26 10:22:16;;;;;;;4.57;0.60;;;21.30;56.60;;;;;;4467481;32;20562;-61
2022/05/26 10:24:58;;;;;;;2.38;0.60;;;21.40;56.60;;;;;;4466520;32;20144;-61
2022/05/26 10:27:46;;;;;;;5.82;0.90;;;21.30;56.60;;;;;;4466970;32;20184;-62
2022/05/26 10:30:43;;;;;;;4.93;1.08;;;21.30;56.70;;;;;;4467419;32;20125;-62
2022/05/26 10:33:18;;;;;;;5.45;0.80;;;21.30;56.80;;;;;;4463927;32;20188;-61
2022/05/26 10:36:21;;;;;;;6.10;1.15;;;21.30;56.90;;;;;;4466887;32;20157;-62
2022/05/26 10:38:59;;;;;;;7.40;1.02;;;21.30;56.80;;;;;;4467388;32;20124;-61
2022/05/26 10:41:50;;;;;;;3.28;0.60;;;21.30;56.90;;;;;;4465791;32;20140;-61
2022/05/26 10:44:32;;;;;;;5.93;1.10;;;21.30;56.80;;;;;;4466913;32;20137;-62
2022/05/26 10:47:04;;;;;;;3.50;0.90;;;21.30;56.90;;;;;;4478695;32;20141;-61
2022/05/26 10:49:59;;;;;;;2.78;0.73;;;21.30;56.90;;;;;;4466302;32;20387;-62
2022/05/26 10:52:36;;;;;;;4.68;0.93;;;21.40;56.90;;;;;;4463750;32;20598;-61
2022/05/26 10:55:11;;;;;;;9.73;1.27;;;21.40;57.00;;;;;;4466573;32;20191;-61
2022/05/26 10:57:47;;;;;;;2.05;0.50;;;21.40;57.00;;;;;;4466405;32;20121;-62
2022/05/26 11:00:27;;;;;;;4.63;1.33;;;21.40;57.00;;;;;;4466897;32;20143;-61
2022/05/26 11:03:19;;;;;;;5.53;0.75;;;21.40;57.00;;;;;;4465910;32;20145;-61
2022/05/26 11:05:46;;;;;;;4.38;1.08;;;21.40;57.00;;;;;;4466475;32;20141;-60
2022/05/26 11:08:22;;;;;;;6.18;0.90;;;21.40;57.00;;;;;;4466298;32;20593;-62
2022/05/26 11:10:50;;;;;;;4.20;0.95;;;21.40;57.10;;;;;;4466118;31;20148;-61
2022/05/26 11:13:27;;;;;;;3.33;0.82;;;21.40;57.20;;;;;;4475521;31;20144;-61
2022/05/26 11:18:45;;;;;;;5.30;1.05;;;21.40;57.20;;;;;;4481559;31;20132;-60
2022/05/26 11:21:18;;;;;;;6.07;0.90;;;21.40;57.30;;;;;;4474771;31;20733;-59
2022/05/26 11:23:45;;;;;;;3.92;1.30;;;21.40;57.40;;;;;;4464533;32;20129;-60
2022/05/26 11:26:44;;;;;;;4.70;1.20;;;21.40;57.40;;;;;;4473190;31;20145;-60
2022/05/26 11:29:10;;;;;;;5.47;1.33;;;21.40;57.40;;;;;;4481575;32;20629;-60
2022/05/26 11:38:31;;;;;;;4.47;1.20;;;21.40;57.50;;;;;;4480658;32;20508;-62
2022/05/26 11:41:00;;;;;;;2.38;0.95;;;21.40;57.40;;;;;;4480786;32;20756;-63
2022/05/26 11:43:38;;;;;;;4.13;0.77;;;21.40;57.30;;;;;;4482193;32;20196;-63
2022/05/26 11:46:09;;;;;;;4.53;1.10;;;21.40;57.20;;;;;;4481163;32;20163;-62
2022/05/26 11:48:42;;;;;;;4.55;1.00;;;21.40;57.10;;;;;;4493584;31;20141;-62
2022/05/26 11:51:28;;;;;;;6.18;1.25;;;21.40;57.10;;;;;;4481468;32;20141;-62
2022/05/26 11:53:55;;;;;;;6.53;1.00;;;21.40;57.00;;;;;;4480782;31;20156;-62
2022/05/26 11:56:28;;;;;;;6.40;1.20;;;21.40;57.00;;;;;;4481853;31;20692;-62
2022/05/26 11:59:18;;;;;;;3.75;0.93;;;21.40;57.00;;;;;;4480736;31;20149;-62
2022/05/26 12:01:46;;;;;;;4.70;0.88;;;21.40;57.00;;;;;;4481072;32;20137;-62
2022/05/26 12:04:36;;;;;;;4.28;0.85;;;21.40;57.00;;;;;;4481257;32;20577;-62
2022/05/26 12:07:23;;;;;;;6.93;1.02;;;21.40;56.80;;;;;;4480237;31;20235;-62
2022/05/26 12:09:57;;;;;;;3.28;1.00;;;21.40;56.80;;;;;;4481452;31;20133;-62
2022/05/26 12:12:23;;;;;;;5.30;1.17;;;21.40;56.90;;;;;;4480978;32;20144;-62
2022/05/26 12:14:55;;;;;;;5.22;0.93;;;21.40;56.80;;;;;;4480723;32;20125;-62
2022/05/26 12:17:30;;;;;;;5.15;1.23;;;21.40;56.80;;;;;;4480685;31;20194;-62
2022/05/26 12:20:11;;;;;;;5.07;1.08;;;21.40;56.70;;;;;;4480185;32;20153;-62
2022/05/26 12:22:51;;;;;;;3.50;1.00;;;21.40;56.70;;;;;;4481198;32;20168;-62
2022/05/26 12:25:24;;;;;;;4.03;1.00;;;21.40;56.70;;;;;;4481232;31;20155;-62
2022/05/26 12:27:56;;;;;;;5.07;0.95;;;21.40;56.60;;;;;;4479413;32;20132;-62
2022/05/26 12:30:40;;;;;;;6.18;1.13;;;21.40;56.70;;;;;;4481688;31;20135;-61
2022/05/26 12:33:20;;;;;;;2.08;0.70;;;21.40;56.60;;;;;;4480326;32;20133;-62
2022/05/26 12:36:04;;;;;;;3.13;0.82;;;21.40;56.50;;;;;;4480938;32;20211;-62
2022/05/26 12:38:50;;;;;;;;;;;21.40;56.50;;;;;;4481950;32;20243;-62
2022/05/26 12:41:34;;;;;;;2.65;1.00;;;21.30;56.30;;;;;;4479979;31;20107;-62
2022/05/26 12:44:12;;;;;;;3.95;0.80;;;21.40;56.50;;;;;;4481291;32;20187;-63
2022/05/26 12:47:00;;;;;;;5.88;0.90;;;21.40;56.50;;;;;;4480642;32;20125;-62
2022/05/26 12:49:49;;;;;;;3.67;1.25;;;21.40;56.50;;;;;;4480168;32;20136;-62
2022/05/26 12:52:39;;;;;;;3.58;0.80;;;21.40;56.50;;;;;;4481355;32;20132;-62
2022/05/26 12:55:26;;;;;;;3.15;0.70;;;21.40;56.40;;;;;;4480745;32;20121;-62
2022/05/26 12:58:04;;;;;;;3.28;0.85;;;21.40;56.50;;;;;;4478865;32;20124;-62
2022/05/26 13:00:38;;;;;;;5.25;0.80;;;21.40;56.40;;;;;;4480949;32;20270;-62
2022/05/26 13:03:13;;;;;;;8.65;1.20;;;21.40;57.20;;;;;;4479638;32;20592;-62
2022/05/26 13:05:44;;;;;;;5.90;0.90;;;21.40;56.40;;;;;;4480093;32;20128;-62
2022/05/26 13:08:22;;;;;;;4.72;1.02;;;21.40;56.60;;;;;;4480142;32;20190;-62
2022/05/26 13:10:52;;;;;;;2.72;0.73;;;21.40;56.80;;;;;;4479611;32;20659;-62
2022/05/26 13:13:28;;;;;;;4.22;0.88;;;21.40;56.60;;;;;;4480760;32;20121;-62
2022/05/26 13:16:21;;;;;;;4.57;0.90;;;21.40;56.70;;;;;;4482347;32;20231;-63
2022/05/26 13:18:47;;;;;;;3.17;0.82;;;21.40;56.60;;;;;;4483119;31;20601;-63
2022/05/26 13:21:29;;;;;;;2.97;0.75;;;21.40;56.70;;;;;;4481978;31;20164;-62
2022/05/26 13:23:55;;;;;;;3.33;0.93;;;21.40;56.70;;;;;;4482410;31;20144;-63
2022/05/26 13:26:23;;;;;;;5.28;0.90;;;21.40;56.70;;;;;;4483743;31;20289;-63
2022/05/26 13:28:53;;;;;;;3.50;0.80;;;21.40;56.80;;;;;;4482531;31;20132;-62
2022/05/26 13:34:07;;;;;;;3.38;0.80;;;21.40;56.70;;;;;;4483283;31;20496;-62
2022/05/26 13:36:40;;;;;;;4.38;1.35;;;21.40;56.70;;;;;;4482239;32;20504;-62
2022/05/26 13:39:12;;;;;;;6.20;1.03;;;21.30;56.50;;;;;;4483471;31;20613;-62
2022/05/26 13:41:40;;;;;;;3.22;0.80;;;21.30;56.50;;;;;;4482140;32;20769;-61
2022/05/26 13:44:08;;;;;;;4.65;1.08;;;21.30;56.50;;;;;;4482955;31;20206;-62
2022/05/26 13:46:45;;;;;;;2.53;0.60;;;21.40;56.50;;;;;;4482844;31;20132;-62
2022/05/26 13:49:23;;;;;;;3.47;0.80;;;21.30;57.40;;;;;;4482404;32;20599;-62
2022/05/26 13:51:51;;;;;;;2.85;0.90;;;21.30;56.50;;;;;;4483255;31;20133;-62
2022/05/26 13:54:17;;;;;;;3.70;0.90;;;21.30;56.50;;;;;;4481922;31;20140;-62
2022/05/26 13:56:46;;;;;;;3.20;0.60;;;21.30;56.40;;;;;;4483007;31;20129;-62